Latest Coastal Weather Observations for Learmonth

IDW60701

Issued at 6:33 pm WST Thursday 29 June 2017 (issued every 10 minutes, with the page automatically refreshed every 10 minutes)

About coastal observations | Map of coastal stations | Coastal observations for WA | Marine services | Other Formats
Station Details ID: 005007 Name: LEARMONTH AIRPORT Lat: -22.24 Lon: 114.10 Height: 5.0 m
Data from the previous 72 hours. | See also: Recent months at Learmonth
Date/Time
WST
Temp
°C
Wind Pressure Rain since
9am
mm
Weather Cloud Vis
km
Sea
Height
m
Swell
Dir  Spd
kts
Gust
kts
hPa Trend Height
m
Period
s
Dir
29/06:00pm 17.5 N 3 4 1019.4 - 0.0 - - 10 - - - -
29/05:30pm 19.2 NNE 4 5 1019.5 - 0.0 - - 10 - - - -
29/05:00pm 20.0 NNE 5 6 1019.8 - 0.0 - - 10 - - - -
29/04:30pm 20.7 NNE 4 6 1019.9 - 0.0 - - 10 - - - -
29/04:00pm 20.5 N 4 7 1020.0 - 0.0 - - 10 - - - -
29/03:30pm 20.7 NNE 5 8 1020.1 - 0.0 - - 10 - - - -
29/03:00pm 20.3 N 5 9 1020.4 - 0.0 - - 10 - - - -
29/02:30pm 20.3 N 7 11 1020.6 - 0.0 - - 10 - - - -
29/02:00pm 20.2 NE 7 11 1020.9 - 0.0 - - 10 - - - -
29/01:30pm 20.4 NE 10 14 1021.3 - 0.0 - - 10 - - - -
29/01:00pm 20.5 NE 13 17 1021.7 - 0.0 - - 10 - - - -
29/12:30pm 20.5 NE 14 18 1022.3 - 0.0 - - 10 - - - -
29/12:00pm 20.1 ENE 15 20 1022.8 - 0.0 - - 10 - - - -
29/11:30am 19.5 ENE 17 23 1023.3 - 0.0 - - 10 - - - -
29/11:00am 18.8 ENE 18 22 1023.7 - 0.0 - - 10 - - - -
29/10:30am 18.9 ENE 19 25 1024.1 - 0.0 - - 10 - - - -
29/10:00am 18.5 ENE 18 25 1024.2 - 0.0 - - 10 - - - -
29/09:30am 18.2 ENE 19 25 1024.1 - 0.0 - - 10 - - - -
29/09:00am 18.1 ENE 16 22 1024.0 - 0.0 - - 10 - - - -
29/08:30am 17.6 ENE 15 19 1023.9 - 0.0 - - 10 - - - -
29/08:00am 17.0 ENE 16 20 1023.1 - 0.0 - - 10 - - - -
29/07:30am 16.4 ENE 14 19 1023.2 - 0.0 - - 10 - - - -
29/07:00am 16.1 ENE 15 19 1023.2 - 0.0 - - 10 - - - -
29/06:30am 16.2 ENE 13 18 1023.1 - 0.0 - - 10 - - - -
29/06:00am 16.4 ENE 14 18 1022.6 - 0.0 - - 10 - - - -
29/05:30am 16.7 ENE 15 19 1022.2 - 0.0 - - 10 - - - -
29/05:00am 16.6 ENE 12 17 1021.9 - 0.0 - - 10 - - - -
29/04:30am 16.5 ENE 12 15 1021.4 - 0.0 - - 10 - - - -
29/04:00am 17.0 ENE 12 16 1021.1 - 0.0 - - 10 - - - -
29/03:30am 17.5 ENE 14 18 1021.0 - 0.0 - - 10 - - - -
29/03:00am 17.9 ENE 16 21 1020.9 - 0.0 - - 10 - - - -
29/02:30am 18.0 ENE 15 20 1021.1 - 0.0 - - 10 - - - -
29/02:00am 17.8 E 17 21 1021.2 - 0.0 - - 10 - - - -
29/01:30am 18.1 E 17 22 1021.3 - 0.0 - - 10 - - - -
29/01:04am 16.5 ESE 15 20 1021.3 - 0.0 - - 10 - - - -
29/01:00am 11.4 SSE 6 10 1021.4 - 0.0 - - 10 - - - -
29/12:30am 9.1 S 6 7 1021.5 - 0.0 - - 10 - - - -
29/12:00am 9.4 SSW 8 9 1021.4 - 0.0 - - 10 - - - -
 
Date/Time
WST
Temp
°C
Wind Pressure Rain since
9am
mm
Weather Cloud Vis
km
Sea
Height
m
Swell
Dir  Spd
kts
Gust
kts
hPa Trend Height
m
Period
s
Dir
28/11:30pm 10.6 SW 7 9 1021.7 - 0.0 - - 10 - - - -
28/11:00pm 9.9 SW 9 9 1022.0 - 0.0 - - 10 - - - -
28/10:30pm 10.8 SW 8 9 1022.1 - 0.0 - - 10 - - - -
28/10:00pm 11.9 SW 7 8 1022.1 - 0.0 - - 10 - - - -
28/09:30pm 12.9 SW 5 6 1022.0 - 0.0 - - 10 - - - -
28/09:00pm 13.4 SW 4 5 1021.8 - 0.0 - - 10 - - - -
28/08:30pm 13.3 SSW 7 7 1021.7 - 0.0 - - 10 - - - -
28/08:00pm 14.1 SW 4 5 1021.4 - 0.0 - - 10 - - - -
28/07:30pm 15.8 SW 4 4 1021.0 - 0.0 - - 10 - - - -
28/07:00pm 16.8 CALM 0 0 1020.8 - 0.0 - - 10 - - - -
28/06:30pm 17.3 S 4 5 1020.6 - 0.0 - - 10 - - - -
28/06:00pm 19.4 SE 5 6 1020.2 - 0.0 - - 10 - - - -
28/05:30pm 21.8 SE 7 8 1020.2 - 0.0 - - 10 - - - -
28/05:00pm 23.1 SE 8 10 1020.2 - 0.0 - - 10 - - - -
28/04:30pm 23.3 SE 9 11 1020.2 - 0.0 - - 10 - - - -
28/04:00pm 23.3 SE 7 11 1020.1 - 0.0 - - 10 - - - -
28/03:30pm 22.6 ESE 3 6 1020.3 - 0.0 - - 10 - - - -
28/03:00pm 22.1 ENE 5 8 1020.2 - 0.0 - - 10 - - - -
28/02:30pm 21.9 NE 5 9 1020.3 - 0.0 - - 10 - - - -
28/02:00pm 21.5 NNE 6 9 1020.6 - 0.0 - - 10 - - - -
28/01:30pm 21.1 NNE 7 10 1021.1 - 0.0 - - 10 - - - -
28/01:00pm 21.0 NE 7 10 1021.8 - 0.0 - - 10 - - - -
28/12:30pm 20.7 NE 8 11 1022.2 - 0.0 - - 10 - - - -
28/12:00pm 20.8 ENE 9 12 1022.6 - 0.0 - - 10 - - - -
28/11:30am 20.4 ENE 10 14 1023.1 - 0.0 - - 10 - - - -
28/11:00am 19.8 ENE 10 14 1023.2 - 0.0 - - 10 - - - -
28/10:30am 19.7 NE 9 12 1023.4 - 0.0 - - 10 - - - -
28/10:00am 18.5 E 11 14 1023.7 - 0.0 - - 10 - - - -
28/09:30am 17.5 E 13 17 1023.8 - 0.0 - - 10 - - - -
28/09:00am 17.7 ESE 14 17 1023.6 - 0.0 - - 10 - - - -
28/08:30am 17.2 SE 11 15 1023.3 - 0.0 - - 10 - - - -
28/08:00am 13.8 SW 5 7 1023.0 - 0.0 - - 10 - - - -
28/07:30am 10.9 WSW 6 8 1022.7 - 0.0 - - 10 - - - -
28/07:00am 9.5 SW 8 9 1022.4 - 0.0 - - 10 - - - -
28/06:30am 10.3 SW 7 9 1022.0 - 0.0 - - 10 - - - -
28/06:00am 10.6 SW 7 9 1021.6 - 0.0 - - 10 - - - -
28/05:30am 10.1 S 7 8 1021.4 - 0.0 - - 10 - - - -
28/05:00am 11.2 SSW 7 8 1021.2 - 0.0 - - 10 - - - -
28/04:30am 11.1 SSW 6 7 1021.3 - 0.0 - - 10 - - - -
28/04:00am 11.9 SSW 6 7 1021.5 - 0.0 - - 10 - - - -
28/03:30am 12.7 SSW 7 8 1021.5 - 0.0 - - 10 - - - -
28/03:00am 13.6 S 6 8 1021.3 - 0.0 - - 10 - - - -
28/02:30am 15.5 SSE 10 14 1021.2 - 0.0 - - 10 - - - -
28/02:00am 15.9 SSE 11 15 1021.2 - 0.0 - - 10 - - - -
28/01:30am 15.9 SSE 11 14 1021.3 - 0.0 - - 10 - - - -
28/01:00am 14.5 SSE 11 14 1021.2 - 0.0 - - 10 - - - -
28/12:30am 12.4 S 9 9 1021.1 - 0.0 - - 10 - - - -
28/12:00am 11.6 SSW 8 9 1021.0 - 0.0 - - 10 - - - -
 
Date/Time
WST
Temp
°C
Wind Pressure Rain since
9am
mm
Weather Cloud Vis
km
Sea
Height
m
Swell
Dir  Spd
kts
Gust
kts
hPa Trend Height
m
Period
s
Dir
27/11:30pm 12.9 S 8 9 1021.1 - 0.0 - - 10 - - - -
27/11:00pm 14.5 S 9 11 1021.0 - 0.0 - - 10 - - - -
27/10:30pm 15.1 S 10 12 1021.1 - 0.0 - - 10 - - - -
27/10:00pm 15.1 S 10 12 1021.1 - 0.0 - - 10 - - - -
27/09:30pm 14.4 S 9 10 1021.1 - 0.0 - - 10 - - - -
27/09:00pm 14.1 SSW 10 11 1020.7 - 0.0 - - 10 - - - -
27/08:30pm 14.5 SSW 9 10 1020.6 - 0.0 - - 10 - - - -
27/08:00pm 15.4 S 9 10 1020.3 - 0.0 - - 10 - - - -
27/07:30pm 16.2 SSW 9 11 1020.0 - 0.0 - - 10 - - - -
27/07:00pm 16.9 S 9 10 1019.9 - 0.0 - - 10 - - - -
27/06:30pm 18.3 S 9 10 1019.7 - 0.0 - - 10 - - - -
27/06:00pm 20.2 S 8 10 1019.4 - 0.0 - - 10 - - - -
27/05:30pm 23.3 SSE 10 12 1019.0 - 0.0 - - 10 - - - -
27/05:00pm 24.6 SSE 12 15 1018.8 - 0.0 - - 10 - - - -
27/04:30pm 25.3 SE 13 16 1018.5 - 0.0 - - 10 - - - -
27/04:00pm 25.5 SE 14 19 1018.5 - 0.0 - - 10 - - - -
27/03:30pm 26.0 SE 15 20 1018.4 - 0.0 - - 10 - - - -
27/03:00pm 25.9 SE 16 20 1018.2 - 0.0 - - 10 - - - -
27/02:30pm 25.6 SE 15 19 1018.5 - 0.0 - - 10 - - - -
27/02:00pm 25.3 SE 13 19 1018.8 - 0.0 - - 10 - - - -
27/01:30pm 24.9 SE 15 18 1019.1 - 0.0 - - 10 - - - -
27/01:00pm 24.2 SE 15 19 1019.5 - 0.0 - - 10 - - - -
27/12:30pm 22.9 SE 12 16 1020.1 - 0.0 - - 10 - - - -
27/12:00pm 22.1 SE 11 14 1020.6 - 0.0 - - 10 - - - -
27/11:30am 21.3 ESE 11 14 1021.2 - 0.0 - - 10 - - - -
27/11:00am 20.9 ESE 11 17 1021.5 - 0.0 - - 10 - - - -
27/10:30am 20.0 ESE 11 16 1022.0 - 0.0 - - 10 - - - -
27/10:00am 20.0 SE 12 15 1022.0 - 0.0 - - 10 - - - -
27/09:30am 19.4 SE 11 14 1022.3 - 0.0 - - 10 - - - -
27/09:00am 18.6 SSE 10 13 1022.1 - 0.0 - - 10 - - - -
27/08:30am 16.5 S 6 8 1022.0 - 0.0 - - 10 - - - -
27/08:00am 14.1 WSW 5 7 1021.8 - 0.0 - - 10 - - - -
27/07:30am 12.2 SW 7 9 1021.3 - 0.0 - - 10 - - - -
27/07:00am 11.4 SW 8 9 1020.9 - 0.0 - - 10 - - - -
27/06:30am 14.3 SSE 9 12 1020.5 - 0.0 - - 10 - - - -
27/06:00am 15.0 SSE 11 14 1020.1 - 0.0 - - 10 - - - -
27/05:30am 15.4 SSE 12 16 1019.8 - 0.0 - - 10 - - - -
27/05:00am 15.5 SSE 11 14 1019.8 - 0.0 - - 10 - - - -
27/04:30am 13.8 S 9 11 1019.8 - 0.0 - - 10 - - - -
27/04:00am 14.0 S 9 10 1019.8 - 0.0 - - 10 - - - -
27/03:30am 14.9 S 10 12 1019.6 - 0.0 - - 10 - - - -
27/03:00am 14.9 S 10 12 1019.4 - 0.0 - - 10 - - - -
27/02:30am 15.4 S 9 12 1019.5 - 0.0 - - 10 - - - -
27/02:00am 15.4 S 10 12 1019.7 - 0.0 - - 10 - - - -
27/01:30am 15.9 S 10 11 1019.5 - 0.0 - - 10 - - - -
27/01:00am 16.2 S 10 12 1019.5 - 0.0 - - 10 - - - -
27/12:30am 16.7 S 11 13 1019.5 - 0.0 - - 10 - - - -
27/12:00am 14.8 S 8 11 1019.4 - 0.0 - - 10 - - - -
 
Date/Time
WST
Temp
°C
Wind Pressure Rain since
9am
mm
Weather Cloud Vis
km
Sea
Height
m
Swell
Dir  Spd
kts
Gust
kts
hPa Trend Height
m
Period
s
Dir
26/11:30pm 14.8 S 9 11 1019.6 - 0.0 - - 10 - - - -
26/11:00pm 15.3 S 9 11 1019.6 - 0.0 - - 10 - - - -
26/10:30pm 16.0 S 9 11 1019.6 - 0.0 - - 10 - - - -
26/10:00pm 16.8 S 10 13 1019.6 - 0.0 - - 10 - - - -
26/09:30pm 16.6 S 10 12 1019.4 - 0.0 - - 10 - - - -
26/09:00pm 16.6 S 9 11 1019.1 - 0.0 - - 10 - - - -
26/08:30pm 16.7 S 9 11 1018.8 - 0.0 - - 10 - - - -
26/08:00pm 16.7 SSW 9 10 1018.6 - 0.0 - - 10 - - - -
26/07:30pm 17.9 S 9 10 1018.2 - 0.0 - - 10 - - - -
26/07:00pm 19.4 S 9 12 1018.0 - 0.0 - - 10 - - - -

Other Formats:

Comma delimited format used in spreadsheet applications
http://www.bom.gov.au/fwo/IDW60701/IDW60701.94302.axf

JavaScript Object Notation format (JSON) in row-major order
http://www.bom.gov.au/fwo/IDW60701/IDW60701.94302.json